Time;durP1;ratioP1;P1;durP2;ratioP2;P2;SDS_P1;SDS_P2;PMS_P1;PMS_P2;Temp;Humidity;BMP_temperature;BMP_pressure;BME280_temperature;BME280_humidity;BME280_pressure;Samples;Min_cycle;Max_cycle;Signal;HPM_P1;HPM_P2
2022/12/13 00:01:33;;;;;;;54.35;20.52;;;-4.40;99.90;;;;;;5097859;28;20046;-65
2022/12/13 00:04:01;;;;;;;70.18;23.75;;;-4.40;99.90;;;;;;5100247;28;20107;-62
2022/12/13 00:06:29;;;;;;;59.10;24.08;;;-4.40;99.90;;;;;;5101675;28;20122;-64
2022/12/13 00:08:55;;;;;;;55.08;22.60;;;-4.40;99.90;;;;;;5093977;28;20658;-64
2022/12/13 00:11:20;;;;;;;54.22;20.85;;;-4.40;99.90;;;;;;5079293;28;20039;-63
2022/12/13 00:13:46;;;;;;;59.72;24.23;;;-4.40;99.90;;;;;;5097328;28;20086;-64
2022/12/13 00:16:21;;;;;;;65.38;23.42;;;-4.30;99.90;;;;;;5097685;28;20043;-62
2022/12/13 00:18:48;;;;;;;56.58;23.33;;;-4.20;99.90;;;;;;5097100;28;20040;-63
2022/12/13 00:21:16;;;;;;;53.70;21.05;;;-4.20;99.90;;;;;;5079160;28;20127;-64
2022/12/13 00:23:42;;;;;;;49.53;22.23;;;-4.30;99.90;;;;;;5101027;28;20035;-64
2022/12/13 00:26:15;;;;;;;62.90;23.13;;;-4.30;99.90;;;;;;5091519;28;20096;-64
2022/12/13 00:28:41;;;;;;;52.67;22.45;;;-4.40;99.90;;;;;;5075654;28;20035;-63
2022/12/13 00:31:07;;;;;;;55.90;21.58;;;-4.40;99.90;;;;;;5081254;28;20040;-64
2022/12/13 00:33:33;;;;;;;58.65;22.23;;;-4.40;99.90;;;;;;5078441;28;20058;-64
2022/12/13 00:36:02;;;;;;;60.58;20.63;;;-4.40;99.90;;;;;;5097912;28;20586;-62
2022/12/13 00:38:28;;;;;;;60.72;21.27;;;-4.50;99.90;;;;;;5094815;28;20040;-64
2022/12/13 00:40:53;;;;;;;56.90;21.33;;;-4.60;99.90;;;;;;5096528;28;20042;-64
2022/12/13 00:43:19;;;;;;;48.65;19.25;;;-4.50;99.90;;;;;;5099858;28;20625;-63
2022/12/13 00:45:45;;;;;;;52.92;19.67;;;-4.60;99.90;;;;;;5098234;28;20451;-64
2022/12/13 00:48:10;;;;;;;46.28;18.75;;;-4.70;99.90;;;;;;5100573;28;20058;-63
2022/12/13 00:50:37;;;;;;;50.97;20.02;;;-4.80;99.90;;;;;;5096149;28;20032;-64
2022/12/13 00:53:03;;;;;;;44.10;18.63;;;-4.70;99.90;;;;;;5100565;28;20037;-63
2022/12/13 00:55:30;;;;;;;50.10;18.67;;;-4.70;99.90;;;;;;5098039;28;20702;-64
2022/12/13 00:57:55;;;;;;;45.25;19.00;;;-4.70;99.90;;;;;;5090141;28;20394;-63
2022/12/13 01:00:21;;;;;;;41.80;19.05;;;-4.70;99.90;;;;;;5095931;28;20035;-63
2022/12/13 01:02:46;;;;;;;51.55;20.05;;;-4.70;99.90;;;;;;5079951;28;20356;-64
2022/12/13 01:05:13;;;;;;;45.08;18.38;;;-4.70;99.90;;;;;;5106973;28;20122;-62
2022/12/13 01:07:43;;;;;;;49.60;19.00;;;-4.70;99.90;;;;;;5100765;28;20047;-64
2022/12/13 01:10:09;;;;;;;;;;;-4.80;99.90;;;;;;5099709;28;20036;-63
2022/12/13 01:12:34;;;;;;;54.80;19.80;;;-4.80;99.90;;;;;;5099286;28;20436;-63
2022/12/13 01:15:00;;;;;;;46.45;19.85;;;-4.80;99.90;;;;;;5097200;28;20179;-63
2022/12/13 01:17:26;;;;;;;50.40;20.17;;;-4.80;99.90;;;;;;5097768;28;20054;-63
2022/12/13 01:19:52;;;;;;;44.20;19.52;;;-4.70;99.90;;;;;;5097953;28;20115;-63
2022/12/13 01:22:17;;;;;;;51.55;20.08;;;-4.80;99.90;;;;;;5079299;28;20051;-65
2022/12/13 01:24:43;;;;;;;40.42;18.27;;;-4.90;99.90;;;;;;5095924;28;20040;-63
2022/12/13 01:27:09;;;;;;;51.25;18.27;;;-4.90;99.90;;;;;;5096441;28;20032;-63
2022/12/13 01:29:35;;;;;;;45.90;18.70;;;-5.00;99.90;;;;;;5096925;28;20136;-63
2022/12/13 01:32:01;;;;;;;50.35;19.95;;;-5.00;99.90;;;;;;5093508;28;20127;-63
2022/12/13 01:34:26;;;;;;;45.05;19.73;;;-5.00;99.90;;;;;;5096504;28;20100;-64
2022/12/13 01:36:53;;;;;;;47.10;18.92;;;-5.00;99.90;;;;;;5096975;28;20031;-63
2022/12/13 01:39:19;;;;;;;46.55;18.95;;;-5.00;99.90;;;;;;5097033;28;21133;-63
2022/12/13 01:41:47;;;;;;;45.33;18.30;;;-5.00;99.90;;;;;;5094948;28;20298;-64
2022/12/13 01:44:50;;;;;;;50.10;20.38;;;-5.00;99.90;;;;;;5093526;28;20428;-63
2022/12/13 01:47:23;;;;;;;40.33;19.20;;;-5.10;99.90;;;;;;5091468;28;20484;-63
2022/12/13 01:49:49;;;;;;;38.75;18.75;;;-5.10;99.90;;;;;;5080738;28;20039;-64
2022/12/13 01:52:15;;;;;;;41.20;18.08;;;-5.10;99.90;;;;;;5097707;28;20035;-64
2022/12/13 01:54:45;;;;;;;49.40;17.85;;;-5.20;99.90;;;;;;5095002;28;20047;-63
2022/12/13 01:57:13;;;;;;;40.05;17.40;;;-5.20;99.90;;;;;;5096534;28;20089;-63
2022/12/13 01:59:40;;;;;;;40.35;17.20;;;-5.30;99.90;;;;;;5101835;28;20119;-62
2022/12/13 02:02:08;;;;;;;39.40;17.85;;;-5.30;99.90;;;;;;5096056;28;20091;-64
2022/12/13 02:05:13;;;;;;;50.03;19.50;;;-5.30;99.90;;;;;;5081338;28;20539;-62
2022/12/13 02:07:41;;;;;;;44.90;18.70;;;-5.30;99.90;;;;;;5057878;28;20047;-63
2022/12/13 02:10:08;;;;;;;54.15;18.90;;;-5.20;99.90;;;;;;5104950;28;20348;-63
2022/12/13 02:12:36;;;;;;;44.65;17.40;;;-5.30;99.90;;;;;;5102357;28;20079;-64
2022/12/13 02:15:10;;;;;;;44.63;17.90;;;-5.30;99.90;;;;;;5041657;28;1030393;-64
2022/12/13 02:17:51;;;;;;;45.95;17.73;;;-5.40;99.90;;;;;;5097285;28;20047;-64
2022/12/13 02:20:41;;;;;;;41.03;16.63;;;-5.50;99.90;;;;;;5098655;28;20042;-63
2022/12/13 02:23:47;;;;;;;46.15;16.92;;;-5.50;99.90;;;;;;5101117;28;20082;-63
2022/12/13 02:26:46;;;;;;;47.78;17.85;;;-5.60;99.90;;;;;;5098694;28;20383;-63
2022/12/13 02:29:31;;;;;;;;;;;-5.60;99.90;;;;;;5102930;28;20051;-63
2022/12/13 02:32:02;;;;;;;41.25;17.33;;;-5.60;99.90;;;;;;5102398;28;19916;-63
2022/12/13 02:34:38;;;;;;;39.65;16.75;;;-5.70;99.90;;;;;;5090069;28;20512;-63
2022/12/13 02:37:24;;;;;;;41.80;17.58;;;-5.70;99.90;;;;;;5104170;28;20039;-63
2022/12/13 02:40:10;;;;;;;35.83;18.17;;;-5.70;99.90;;;;;;5085707;28;20104;-63
2022/12/13 02:43:01;;;;;;;43.30;17.15;;;-5.70;99.90;;;;;;5101148;28;20473;-63
2022/12/13 02:45:33;;;;;;;44.55;19.83;;;-5.60;99.90;;;;;;5096293;28;20067;-63
2022/12/13 02:48:02;;;;;;;42.08;17.10;;;-5.60;99.90;;;;;;5104473;28;20039;-64
2022/12/13 02:50:30;;;;;;;39.08;17.75;;;-5.60;99.90;;;;;;5077107;28;20424;-62
2022/12/13 02:52:57;;;;;;;48.20;18.23;;;-5.70;99.90;;;;;;5080991;28;20057;-63
2022/12/13 02:55:23;;;;;;;46.92;18.60;;;-5.70;99.90;;;;;;5099284;28;20055;-64
2022/12/13 02:57:49;;;;;;;42.72;19.27;;;-5.70;99.90;;;;;;5093886;28;20075;-64
2022/12/13 03:00:19;;;;;;;40.28;18.63;;;-5.70;99.90;;;;;;5082874;28;20519;-63
2022/12/13 03:02:53;;;;;;;46.15;18.83;;;-5.60;99.90;;;;;;5098405;28;20038;-63
2022/12/13 03:09:07;;;;;;;44.42;18.73;;;-5.60;99.90;;;;;;5101132;28;20040;-64
2022/12/13 03:15:26;;;;;;;44.00;18.73;;;-5.60;99.90;;;;;;5100904;28;20060;-63
2022/12/13 03:18:14;;;;;;;39.83;17.77;;;-5.50;99.90;;;;;;5095999;28;20104;-62
2022/12/13 03:20:45;;;;;;;40.72;18.13;;;-5.60;99.90;;;;;;5096621;28;20051;-62
2022/12/13 03:23:11;;;;;;;42.03;18.23;;;-5.60;99.90;;;;;;5096318;28;20132;-63
2022/12/13 03:25:36;;;;;;;48.95;18.45;;;-5.70;99.90;;;;;;5094555;28;20543;-64
2022/12/13 03:28:02;;;;;;;49.65;19.52;;;-5.70;99.90;;;;;;5097030;28;20123;-63
2022/12/13 03:30:29;;;;;;;46.42;19.02;;;-5.70;99.90;;;;;;5102764;28;20168;-64
2022/12/13 03:32:54;;;;;;;40.88;18.38;;;-5.60;99.90;;;;;;5078466;28;20039;-63
2022/12/13 03:35:20;;;;;;;44.60;18.60;;;-5.60;99.90;;;;;;5078079;28;20050;-63
2022/12/13 03:37:46;;;;;;;44.15;18.25;;;-5.60;99.90;;;;;;5094097;28;20044;-64
2022/12/13 03:40:12;;;;;;;40.75;19.40;;;-5.70;99.90;;;;;;5103078;28;20059;-63
2022/12/13 03:42:37;;;;;;;51.13;18.83;;;-5.70;99.90;;;;;;5102760;28;20066;-64
2022/12/13 03:45:04;;;;;;;50.05;20.75;;;-5.70;99.90;;;;;;5082334;28;20043;-64
2022/12/13 03:47:29;;;;;;;45.58;18.85;;;-5.70;99.90;;;;;;5104126;28;20031;-63
2022/12/13 03:49:55;;;;;;;46.22;18.02;;;-5.60;99.90;;;;;;5104688;28;20032;-63
2022/12/13 03:52:20;;;;;;;41.60;18.33;;;-5.70;99.90;;;;;;5104137;28;20114;-63
2022/12/13 03:54:46;;;;;;;45.92;17.50;;;-5.70;99.90;;;;;;5084588;28;21277;-62
2022/12/13 03:57:14;;;;;;;47.15;18.20;;;-5.70;99.90;;;;;;5086454;28;20122;-64
2022/12/13 03:59:40;;;;;;;46.30;18.80;;;-5.80;99.90;;;;;;5102265;28;20032;-64
2022/12/13 04:02:05;;;;;;;39.55;17.38;;;-5.80;99.90;;;;;;5098844;28;20051;-63
2022/12/13 04:04:31;;;;;;;45.42;18.67;;;-5.80;99.90;;;;;;5095287;28;20398;-62
2022/12/13 04:06:56;;;;;;;45.88;18.65;;;-5.80;99.90;;;;;;5104688;28;20032;-62
2022/12/13 04:09:22;;;;;;;47.80;17.42;;;-5.80;99.90;;;;;;5087092;28;20077;-63
2022/12/13 04:14:32;;;;;;;48.00;17.58;;;-5.80;99.90;;;;;;5085406;28;20097;-64
2022/12/13 04:16:58;;;;;;;46.58;17.20;;;-5.90;99.90;;;;;;5086246;28;20038;-63
2022/12/13 04:19:24;;;;;;;40.78;17.95;;;-5.90;99.90;;;;;;5098494;28;20036;-63
2022/12/13 04:21:50;;;;;;;42.28;18.77;;;-5.90;99.90;;;;;;5101921;28;20036;-63
2022/12/13 04:24:16;;;;;;;49.70;18.70;;;-6.00;99.90;;;;;;5096769;28;20048;-63
2022/12/13 04:26:41;;;;;;;43.17;18.10;;;-5.90;99.90;;;;;;5105948;28;20077;-64
2022/12/13 04:29:07;;;;;;;43.75;17.42;;;-5.80;99.90;;;;;;5087754;28;20085;-63
2022/12/13 04:31:32;;;;;;;44.92;18.95;;;-5.80;99.90;;;;;;5083251;28;20032;-63
2022/12/13 04:33:58;;;;;;;48.20;18.15;;;-5.90;99.90;;;;;;5083259;28;20040;-63
2022/12/13 04:36:23;;;;;;;51.83;18.77;;;-5.90;99.90;;;;;;5101554;28;20435;-63
2022/12/13 04:38:49;;;;;;;40.30;17.35;;;-5.90;99.90;;;;;;5082322;28;20039;-63
2022/12/13 04:41:17;;;;;;;42.40;16.80;;;-5.90;99.90;;;;;;5106227;28;20039;-63
2022/12/13 04:43:43;;;;;;;43.83;17.92;;;-5.90;99.90;;;;;;5090103;28;20466;-64
2022/12/13 04:46:09;;;;;;;41.95;18.85;;;-6.00;99.90;;;;;;5101146;28;20035;-63
2022/12/13 04:48:34;;;;;;;41.30;18.40;;;-6.00;99.90;;;;;;5102126;28;20072;-64
2022/12/13 04:51:00;;;;;;;45.25;17.65;;;-6.00;99.90;;;;;;5098634;28;20118;-64
2022/12/13 04:53:26;;;;;;;41.65;18.27;;;-6.10;99.90;;;;;;5083268;28;20096;-64
2022/12/13 04:55:52;;;;;;;50.40;19.35;;;-6.10;99.90;;;;;;5100246;28;20030;-63
2022/12/13 04:58:18;;;;;;;49.83;19.52;;;-6.10;99.90;;;;;;5103464;28;20043;-63
2022/12/13 05:00:44;;;;;;;44.10;19.38;;;-6.00;99.90;;;;;;5107186;28;20051;-64
2022/12/13 05:03:10;;;;;;;43.78;18.80;;;-6.10;99.90;;;;;;5105791;28;20503;-64
2022/12/13 05:05:39;;;;;;;40.85;18.38;;;-6.00;99.90;;;;;;5105987;28;20075;-62
2022/12/13 05:08:05;;;;;;;47.40;19.30;;;-6.00;99.90;;;;;;5083854;28;20040;-64
2022/12/13 05:10:31;;;;;;;50.97;19.38;;;-6.10;99.90;;;;;;5104431;28;20040;-65
2022/12/13 05:12:58;;;;;;;47.75;19.55;;;-6.10;99.90;;;;;;5101423;28;20084;-62
2022/12/13 05:15:24;;;;;;;43.33;18.73;;;-6.10;99.90;;;;;;5103545;28;20058;-64
2022/12/13 05:17:50;;;;;;;45.63;17.77;;;-6.20;99.90;;;;;;5089607;28;20091;-62
2022/12/13 05:20:15;;;;;;;42.10;17.60;;;-6.20;99.90;;;;;;5086080;28;20052;-63
2022/12/13 05:22:41;;;;;;;48.50;20.38;;;-6.10;99.90;;;;;;5102362;28;20150;-63
2022/12/13 05:25:07;;;;;;;46.92;18.55;;;-6.20;99.90;;;;;;5100455;28;20042;-63
2022/12/13 05:27:32;;;;;;;45.13;19.70;;;-6.10;99.90;;;;;;5082892;28;20468;-64
2022/12/13 05:29:58;;;;;;;43.03;19.05;;;-6.20;99.90;;;;;;5096163;28;20093;-63
2022/12/13 05:32:24;;;;;;;44.17;18.40;;;-6.20;99.90;;;;;;5103186;28;20046;-64
2022/12/13 05:34:49;;;;;;;50.42;20.00;;;-6.20;99.90;;;;;;5082782;28;20075;-62
2022/12/13 05:37:15;;;;;;;53.70;19.17;;;-6.20;99.90;;;;;;5097868;28;20548;-63
2022/12/13 05:39:40;;;;;;;43.72;18.20;;;-6.20;99.90;;;;;;5084570;28;20674;-64
2022/12/13 05:42:06;;;;;;;42.95;17.60;;;-6.30;99.90;;;;;;5102047;28;20055;-63
2022/12/13 05:44:32;;;;;;;41.75;18.15;;;-6.30;99.90;;;;;;5098961;28;20080;-62
2022/12/13 05:46:58;;;;;;;50.80;20.08;;;-6.30;99.90;;;;;;5073091;28;20078;-64
2022/12/13 05:49:23;;;;;;;46.92;19.13;;;-6.10;99.90;;;;;;5093173;28;20050;-63
2022/12/13 05:51:49;;;;;;;49.20;19.25;;;-6.00;99.90;;;;;;5110828;28;20379;-64
2022/12/13 05:54:14;;;;;;;54.92;22.40;;;-5.90;99.90;;;;;;5105329;28;20122;-63
2022/12/13 05:56:40;;;;;;;51.92;20.98;;;-5.90;99.90;;;;;;5107061;28;20077;-65
2022/12/13 05:59:05;;;;;;;60.83;23.80;;;-5.80;99.90;;;;;;5110208;28;20533;-64
2022/12/13 06:01:31;;;;;;;61.00;24.45;;;-5.70;99.90;;;;;;5101717;28;21146;-64
2022/12/13 06:03:57;;;;;;;58.08;21.83;;;-5.60;99.90;;;;;;5097527;28;20048;-62
2022/12/13 06:06:22;;;;;;;58.88;22.52;;;-5.60;99.90;;;;;;5102232;28;20032;-65
2022/12/13 06:08:48;;;;;;;59.50;24.70;;;-5.60;99.90;;;;;;5083817;28;20043;-64
2022/12/13 06:11:14;;;;;;;57.80;22.88;;;-5.70;99.90;;;;;;5064415;28;20114;-63
2022/12/13 06:13:43;;;;;;;58.88;23.73;;;-5.60;99.90;;;;;;5094654;28;20047;-63
2022/12/13 06:16:10;;;;;;;54.88;22.38;;;-5.60;99.90;;;;;;5082179;28;20046;-62
2022/12/13 06:18:36;;;;;;;56.38;22.33;;;-5.70;99.90;;;;;;5076605;28;20039;-64
2022/12/13 06:21:05;;;;;;;52.88;22.05;;;-5.70;99.90;;;;;;5084118;28;20088;-64
2022/12/13 06:23:33;;;;;;;60.47;22.48;;;-5.80;99.90;;;;;;5067202;28;20031;-65
2022/12/13 06:26:02;;;;;;;58.60;22.35;;;-5.80;99.90;;;;;;5085802;28;20067;-63
2022/12/13 06:28:27;;;;;;;44.40;20.05;;;-5.80;99.90;;;;;;5094870;28;20031;-63
2022/12/13 06:30:53;;;;;;;49.05;19.00;;;-5.90;99.90;;;;;;5099003;28;20050;-64
2022/12/13 06:33:19;;;;;;;42.58;17.10;;;-5.90;99.90;;;;;;5097210;28;20046;-65
2022/12/13 06:35:46;;;;;;;51.63;19.33;;;-6.00;99.90;;;;;;5098886;28;22492;-63
2022/12/13 06:38:12;;;;;;;48.88;20.52;;;-6.00;99.90;;;;;;5096861;28;20039;-63
2022/12/13 06:40:38;;;;;;;49.95;19.27;;;-6.10;99.90;;;;;;5080595;28;20036;-63
2022/12/13 06:43:04;;;;;;;48.67;19.60;;;-6.10;99.90;;;;;;5097492;28;20505;-63
2022/12/13 06:45:29;;;;;;;48.10;19.33;;;-6.20;99.90;;;;;;5084218;28;20479;-63
2022/12/13 06:47:56;;;;;;;48.92;20.08;;;-6.20;99.90;;;;;;5104714;28;20076;-65
2022/12/13 06:50:21;;;;;;;46.00;17.63;;;-6.20;99.90;;;;;;5100922;28;20048;-63
2022/12/13 06:52:47;;;;;;;45.00;18.63;;;-6.30;99.90;;;;;;5097634;28;20032;-65
2022/12/13 06:55:13;;;;;;;44.15;18.10;;;-6.30;99.90;;;;;;5077335;28;20526;-62
2022/12/13 06:57:38;;;;;;;48.40;19.63;;;-6.30;99.90;;;;;;5079404;28;20522;-64
2022/12/13 07:00:04;;;;;;;50.33;20.35;;;-6.30;99.90;;;;;;5099498;28;20040;-63
2022/12/13 07:02:31;;;;;;;44.65;18.10;;;-6.40;99.90;;;;;;5084557;28;20040;-65
2022/12/13 07:04:56;;;;;;;47.05;19.58;;;-6.40;99.90;;;;;;5105286;28;20158;-63
2022/12/13 07:07:23;;;;;;;46.33;18.08;;;-6.40;99.90;;;;;;5103831;28;20034;-64
2022/12/13 07:09:49;;;;;;;42.92;18.85;;;-6.40;99.90;;;;;;5100106;28;20047;-63
2022/12/13 07:12:14;;;;;;;45.95;19.25;;;-6.50;99.90;;;;;;5080846;28;20036;-63
2022/12/13 07:14:40;;;;;;;48.95;18.58;;;-6.50;99.90;;;;;;5085054;28;20127;-64
2022/12/13 07:17:05;;;;;;;51.83;18.77;;;-6.50;99.90;;;;;;5103700;28;20559;-64
2022/12/13 07:19:31;;;;;;;51.15;20.02;;;-6.50;99.90;;;;;;5102012;28;20433;-64
2022/12/13 07:21:57;;;;;;;55.30;21.38;;;-6.40;99.90;;;;;;5089822;28;20066;-64
2022/12/13 07:24:22;;;;;;;59.08;22.10;;;-6.30;99.90;;;;;;5099510;28;20048;-62
2022/12/13 07:26:48;;;;;;;51.67;22.85;;;-6.30;99.90;;;;;;5093266;28;20028;-64
2022/12/13 07:29:13;;;;;;;65.30;22.55;;;-6.30;99.90;;;;;;5087134;28;20287;-63
2022/12/13 07:31:39;;;;;;;58.88;22.35;;;-6.30;99.90;;;;;;5107145;28;20052;-63
2022/12/13 07:34:04;;;;;;;53.60;22.00;;;-6.30;99.90;;;;;;5104025;28;20036;-64
2022/12/13 07:36:30;;;;;;;63.85;24.88;;;-6.20;99.90;;;;;;5073433;28;20043;-65
2022/12/13 07:38:56;;;;;;;62.75;23.48;;;-6.20;99.90;;;;;;5096526;28;20062;-64
2022/12/13 07:41:23;;;;;;;62.05;23.55;;;-6.00;99.90;;;;;;5107104;28;20039;-63
2022/12/13 07:43:49;;;;;;;70.80;24.35;;;-5.80;99.90;;;;;;5088155;28;20054;-64
2022/12/13 07:46:15;;;;;;;69.75;25.02;;;-5.70;99.90;;;;;;5089621;28;20040;-62
2022/12/13 07:48:40;;;;;;;61.65;24.08;;;-5.60;99.90;;;;;;5104551;28;20032;-63
2022/12/13 07:51:10;;;;;;;64.18;23.70;;;-5.50;99.90;;;;;;5107474;28;20036;-63
2022/12/13 07:53:36;;;;;;;66.13;23.98;;;-5.60;99.90;;;;;;5108282;28;20510;-64
2022/12/13 07:56:06;;;;;;;69.85;25.13;;;-5.50;99.90;;;;;;5106114;28;20027;-64
2022/12/13 07:58:32;;;;;;;68.85;25.33;;;-5.50;99.90;;;;;;5110525;28;20491;-63
2022/12/13 08:01:00;;;;;;;58.47;24.02;;;-5.50;99.90;;;;;;5106035;28;20035;-63
2022/12/13 08:03:26;;;;;;;55.20;22.92;;;-5.50;99.90;;;;;;5103371;28;20695;-63
2022/12/13 08:06:05;;;;;;;56.72;20.75;;;-5.50;99.90;;;;;;5102512;28;20031;-63
2022/12/13 08:08:32;;;;;;;59.10;23.15;;;-5.40;99.90;;;;;;5095247;28;20032;-63
2022/12/13 08:11:07;;;;;;;69.70;25.42;;;-5.40;99.90;;;;;;5096366;28;20069;-63
2022/12/13 08:13:34;;;;;;;67.75;24.77;;;-5.30;99.90;;;;;;5099263;28;20097;-63
2022/12/13 08:16:06;;;;;;;62.20;25.13;;;-5.30;99.90;;;;;;5087776;28;20039;-63
2022/12/13 08:18:32;;;;;;;59.30;23.92;;;-5.20;99.90;;;;;;5106741;28;20028;-63
2022/12/13 08:20:59;;;;;;;64.13;25.00;;;-5.30;99.90;;;;;;5098906;27;20111;-63
2022/12/13 08:23:25;;;;;;;61.53;24.65;;;-5.30;99.90;;;;;;5080297;28;20040;-62
2022/12/13 08:25:52;;;;;;;68.32;24.33;;;-5.30;99.90;;;;;;5096441;28;20036;-63
2022/12/13 08:28:18;;;;;;;62.40;24.80;;;-5.30;99.90;;;;;;5097872;28;20368;-64
2022/12/13 08:30:43;;;;;;;78.53;27.02;;;-5.20;99.90;;;;;;5085137;28;20031;-63
2022/12/13 08:33:09;;;;;;;63.58;25.08;;;-5.20;99.90;;;;;;5103624;28;20042;-65
2022/12/13 08:35:34;;;;;;;84.68;29.48;;;-5.10;99.90;;;;;;5088402;28;20052;-64
2022/12/13 08:38:00;;;;;;;112.03;33.25;;;-5.10;99.90;;;;;;5088522;28;20046;-63
2022/12/13 08:40:26;;;;;;;88.35;29.40;;;-4.90;99.90;;;;;;5103290;28;20121;-63
2022/12/13 08:42:54;;;;;;;88.82;31.05;;;-4.80;99.90;;;;;;5096075;28;20046;-64
2022/12/13 08:45:19;;;;;;;73.07;28.27;;;-4.70;99.90;;;;;;5097973;28;20429;-64
2022/12/13 08:47:45;;;;;;;92.25;30.08;;;-4.70;99.90;;;;;;5083494;28;20044;-64
2022/12/13 08:50:10;;;;;;;73.47;28.08;;;-4.60;99.90;;;;;;5103481;28;20039;-64
2022/12/13 08:52:36;;;;;;;74.28;29.90;;;-4.50;99.90;;;;;;5108781;28;20149;-64
2022/12/13 08:55:01;;;;;;;86.70;29.58;;;-4.40;99.90;;;;;;5070828;28;20092;-64
2022/12/13 08:57:27;;;;;;;91.20;31.10;;;-4.40;99.90;;;;;;5105210;28;20589;-63
2022/12/13 08:59:53;;;;;;;81.10;29.52;;;-4.20;99.90;;;;;;5089137;28;20489;-63
2022/12/13 09:02:19;;;;;;;79.10;28.50;;;-4.20;99.90;;;;;;5086662;28;20040;-63
2022/12/13 09:04:44;;;;;;;86.53;29.73;;;-4.10;99.90;;;;;;5106852;28;20131;-64
2022/12/13 09:07:10;;;;;;;75.88;28.63;;;-4.00;99.90;;;;;;5079875;28;20532;-65
2022/12/13 09:09:36;;;;;;;81.43;30.00;;;-3.90;99.90;;;;;;5097317;28;20040;-65
2022/12/13 09:12:01;;;;;;;86.38;29.67;;;-3.90;99.90;;;;;;5083578;28;20032;-63
2022/12/13 09:14:27;;;;;;;79.38;29.60;;;-3.80;99.90;;;;;;5100640;28;20043;-64
2022/12/13 09:16:53;;;;;;;89.43;29.58;;;-3.80;99.90;;;;;;5083360;28;20052;-65
2022/12/13 09:19:18;;;;;;;88.57;31.58;;;-3.70;99.90;;;;;;5071013;28;20043;-64
2022/12/13 09:21:44;;;;;;;87.30;33.03;;;-3.60;99.90;;;;;;5101116;28;20041;-65
2022/12/13 09:24:09;;;;;;;89.82;29.38;;;-3.60;99.90;;;;;;5089074;28;20455;-64
2022/12/13 09:26:35;;;;;;;84.32;31.33;;;-3.50;99.90;;;;;;5092620;28;20348;-65
2022/12/13 09:29:01;;;;;;;81.80;31.92;;;-3.50;99.90;;;;;;5088790;28;20032;-64
2022/12/13 09:31:26;;;;;;;82.55;30.48;;;-3.50;99.90;;;;;;5084684;28;20036;-64
2022/12/13 09:33:52;;;;;;;87.75;30.33;;;-3.40;99.90;;;;;;5085661;28;20123;-64
2022/12/13 09:36:19;;;;;;;81.60;30.90;;;-3.40;99.90;;;;;;5110599;28;20494;-64
2022/12/13 09:38:45;;;;;;;85.47;31.55;;;-3.30;99.90;;;;;;5102291;28;20035;-64
2022/12/13 09:41:39;;;;;;;77.32;30.60;;;-3.20;99.90;;;;;;5106785;27;20050;-64
2022/12/13 09:44:12;;;;;;;80.30;31.33;;;-3.20;99.90;;;;;;5106336;28;20383;-64
2022/12/13 09:46:42;;;;;;;74.10;29.50;;;-3.10;99.90;;;;;;5089054;28;20040;-65
2022/12/13 09:49:14;;;;;;;80.60;30.60;;;-3.00;99.90;;;;;;5107816;28;20677;-64
2022/12/13 09:51:40;;;;;;;78.30;30.58;;;-3.00;99.90;;;;;;5111433;28;20031;-64
2022/12/13 09:54:05;;;;;;;73.15;29.25;;;-2.90;99.90;;;;;;5087280;28;20502;-65
2022/12/13 09:56:32;;;;;;;80.38;29.27;;;-2.90;99.90;;;;;;5089714;28;20486;-63
2022/12/13 09:58:58;;;;;;;85.07;31.05;;;-2.80;99.90;;;;;;5089247;28;20043;-65
2022/12/13 10:01:24;;;;;;;83.75;31.35;;;-2.80;99.90;;;;;;5075772;28;20084;-65
2022/12/13 10:03:53;;;;;;;82.95;29.52;;;-2.70;99.90;;;;;;5109392;28;20047;-64
2022/12/13 10:06:23;;;;;;;73.70;31.08;;;-2.60;99.90;;;;;;5109046;28;20096;-65
2022/12/13 10:08:58;;;;;;;88.82;29.63;;;-2.50;99.90;;;;;;5108789;28;20031;-65
2022/12/13 10:11:26;;;;;;;81.97;29.08;;;-2.40;99.90;;;;;;5098931;28;20036;-63
2022/12/13 10:14:18;;;;;;;83.43;29.95;;;-2.40;99.90;;;;;;5086278;28;20047;-65
2022/12/13 10:16:50;;;;;;;73.95;30.13;;;-2.30;99.90;;;;;;5104673;28;20110;-64
2022/12/13 10:19:39;;;;;;;81.50;31.70;;;-2.20;99.90;;;;;;5110212;28;20050;-64
2022/12/13 10:22:11;;;;;;;74.38;29.35;;;-2.10;99.90;;;;;;5084921;28;20035;-65
2022/12/13 10:24:56;;;;;;;77.65;29.13;;;-1.90;99.90;;;;;;5089952;28;20055;-64
2022/12/13 10:27:35;;;;;;;70.35;27.10;;;-1.80;99.90;;;;;;5106910;28;20035;-65
2022/12/13 10:30:11;;;;;;;64.82;28.35;;;-1.80;99.90;;;;;;5102618;28;20371;-65
2022/12/13 10:32:57;;;;;;;74.63;28.52;;;-1.70;99.90;;;;;;5085007;28;20040;-65
2022/12/13 10:35:33;;;;;;;73.43;29.08;;;-1.70;99.90;;;;;;5084674;28;20043;-64
2022/12/13 10:38:19;;;;;;;73.95;29.65;;;-1.70;99.90;;;;;;5105954;28;20043;-65
2022/12/13 10:40:47;;;;;;;65.80;26.98;;;-1.70;99.90;;;;;;5084897;28;20036;-65
2022/12/13 10:43:29;;;;;;;70.97;29.65;;;-1.60;99.90;;;;;;5093589;28;20034;-64
2022/12/13 10:46:02;;;;;;;65.95;27.23;;;-1.60;99.90;;;;;;5087115;28;20031;-64
2022/12/13 10:48:49;;;;;;;71.00;28.90;;;-1.60;99.90;;;;;;5087488;28;20035;-65
2022/12/13 10:51:18;;;;;;;72.55;28.17;;;-1.60;99.90;;;;;;5067251;28;20042;-65
2022/12/13 10:53:46;;;;;;;74.05;30.23;;;-1.50;99.90;;;;;;5087624;28;20110;-65
2022/12/13 10:56:12;;;;;;;76.85;28.73;;;-1.50;99.90;;;;;;5085559;28;20052;-64
2022/12/13 10:58:41;;;;;;;68.53;27.55;;;-1.40;99.90;;;;;;5103117;28;20038;-63
2022/12/13 11:01:18;;;;;;;65.47;27.85;;;-1.40;99.90;;;;;;5099238;28;20035;-64
2022/12/13 11:03:56;;;;;;;72.53;28.25;;;-1.40;99.90;;;;;;5109111;28;20114;-64
2022/12/13 11:06:22;;;;;;;67.57;28.10;;;-1.40;99.90;;;;;;5102399;28;20091;-64
2022/12/13 11:08:48;;;;;;;74.55;28.85;;;-1.40;99.90;;;;;;5106372;28;20023;-64
2022/12/13 11:11:17;;;;;;;64.75;27.58;;;-1.30;99.90;;;;;;5109407;28;20043;-64
2022/12/13 11:13:51;;;;;;;71.78;29.92;;;-1.30;99.90;;;;;;5111380;28;20130;-64
2022/12/13 11:16:34;;;;;;;67.38;27.98;;;-1.30;99.90;;;;;;5103317;28;21028;-64
2022/12/13 11:19:04;;;;;;;67.80;27.27;;;-1.20;99.90;;;;;;5099164;28;20136;-64
2022/12/13 11:21:33;;;;;;;66.85;28.08;;;-1.20;99.90;;;;;;5103002;28;20066;-65
2022/12/13 11:24:06;;;;;;;63.92;26.02;;;-1.20;99.90;;;;;;5108864;28;20092;-64
2022/12/13 11:26:37;;;;;;;64.80;26.52;;;-1.20;99.90;;;;;;5067718;28;20132;-63
2022/12/13 11:29:33;;;;;;;57.45;25.83;;;-1.10;99.90;;;;;;5100807;28;20777;-63
2022/12/13 11:32:25;;;;;;;58.88;25.35;;;-1.00;99.90;;;;;;5105336;28;20497;-64
2022/12/13 11:35:08;;;;;;;58.60;25.60;;;-1.00;99.90;;;;;;5102086;28;20534;-63
2022/12/13 11:38:08;;;;;;;67.15;26.10;;;-1.00;99.90;;;;;;5086780;28;20051;-63
2022/12/13 11:40:43;;;;;;;62.95;27.65;;;-0.90;99.90;;;;;;5101262;28;20495;-63
2022/12/13 11:43:20;;;;;;;59.08;25.08;;;-0.80;99.90;;;;;;5100371;28;20100;-63
2022/12/13 11:45:53;;;;;;;62.15;26.48;;;-0.80;99.90;;;;;;5081816;28;20100;-62
2022/12/13 11:48:27;;;;;;;57.63;25.15;;;-0.80;99.90;;;;;;5099644;28;20097;-63
2022/12/13 11:50:55;;;;;;;60.67;24.77;;;-0.80;99.90;;;;;;5080209;28;20091;-64
2022/12/13 11:53:33;;;;;;;57.92;25.92;;;-0.80;99.90;;;;;;5109261;28;20513;-63
2022/12/13 11:56:25;;;;;;;57.55;24.98;;;-0.70;99.90;;;;;;5101917;28;20067;-63
2022/12/13 11:59:21;;;;;;;62.85;25.58;;;-0.70;99.90;;;;;;5082105;28;20076;-63
2022/12/13 12:02:13;;;;;;;62.67;25.77;;;-0.70;99.90;;;;;;5109068;28;20036;-63
2022/12/13 12:04:49;;;;;;;56.10;24.27;;;-0.70;99.90;;;;;;5101038;28;20131;-63
2022/12/13 12:07:19;;;;;;;59.40;25.45;;;-0.60;99.90;;;;;;5098875;28;20028;-64
2022/12/13 12:10:03;;;;;;;57.28;26.17;;;-0.60;99.90;;;;;;5098003;28;20053;-63
2022/12/13 12:12:31;;;;;;;65.55;25.63;;;-0.60;99.90;;;;;;5106191;28;20507;-64
2022/12/13 12:15:09;;;;;;;57.20;25.80;;;-0.50;99.90;;;;;;5106199;28;20055;-63
2022/12/13 12:17:34;;;;;;;62.08;25.65;;;-0.50;99.90;;;;;;5109190;28;20080;-63
2022/12/13 12:20:01;;;;;;;53.03;24.85;;;-0.50;99.90;;;;;;5110494;28;20471;-63
2022/12/13 12:22:32;;;;;;;56.47;25.15;;;-0.40;99.90;;;;;;5109509;28;20040;-62
2022/12/13 12:25:12;;;;;;;60.72;25.48;;;-0.30;99.90;;;;;;5102826;28;20109;-63
2022/12/13 12:27:48;;;;;;;58.13;24.65;;;-0.20;99.90;;;;;;5100875;28;20097;-63
2022/12/13 12:30:26;;;;;;;55.63;25.67;;;-0.30;99.90;;;;;;5102911;28;20441;-63
2022/12/13 12:33:14;;;;;;;52.83;23.52;;;-0.30;99.90;;;;;;5105730;28;20040;-64
2022/12/13 12:35:58;;;;;;;54.17;24.70;;;-0.30;99.90;;;;;;5108338;28;20039;-63
2022/12/13 12:38:27;;;;;;;51.08;23.83;;;-0.30;99.90;;;;;;5091747;28;20096;-64
2022/12/13 12:41:04;;;;;;;58.55;24.00;;;-0.30;99.90;;;;;;5101838;28;20069;-63
2022/12/13 12:43:40;;;;;;;52.78;24.48;;;-0.30;99.90;;;;;;5083386;28;20426;-63
2022/12/13 12:46:23;;;;;;;56.42;23.63;;;-0.30;99.90;;;;;;5101399;28;20035;-64
2022/12/13 12:49:20;;;;;;;54.20;24.88;;;-0.30;99.90;;;;;;5106476;28;20059;-64
2022/12/13 12:52:24;;;;;;;57.05;24.98;;;-0.30;99.90;;;;;;5097338;28;20040;-64